createdAt,value
2019-03-26T00:01:01.737Z,93.70
2019-03-26T00:03:36.074Z,93.80
2019-03-26T00:06:04.872Z,93.90
2019-03-26T00:08:33.482Z,93.95
2019-03-26T00:11:02.037Z,93.86
2019-03-26T00:13:31.105Z,93.73
2019-03-26T00:16:00.023Z,93.19
2019-03-26T00:18:28.602Z,93.00
2019-03-26T00:20:57.466Z,92.91
2019-03-26T00:23:26.083Z,92.71
2019-03-26T00:25:54.711Z,92.58
2019-03-26T00:28:23.737Z,92.52
2019-03-26T00:30:52.675Z,92.30
2019-03-26T00:33:21.295Z,92.35
2019-03-26T00:35:49.905Z,92.43
2019-03-26T00:38:18.479Z,92.67
2019-03-26T00:40:47.031Z,92.93
2019-03-26T00:43:15.655Z,93.29
2019-03-26T00:45:44.203Z,93.90
2019-03-26T00:48:12.875Z,94.21
2019-03-26T00:50:41.502Z,94.22
2019-03-26T00:53:10.187Z,94.30
2019-03-26T00:55:39.202Z,94.45
2019-03-26T00:58:07.814Z,94.71
2019-03-26T01:00:39.075Z,95.24
2019-03-26T01:03:07.745Z,95.66
2019-03-26T01:05:36.302Z,95.75
2019-03-26T01:08:05.223Z,95.96
2019-03-26T01:10:34.267Z,96.35
2019-03-26T01:13:02.996Z,96.34
2019-03-26T01:15:31.606Z,96.35
2019-03-26T01:18:00.202Z,96.50
2019-03-26T01:20:28.851Z,96.61
2019-03-26T01:22:57.467Z,96.66
2019-03-26T01:25:26.085Z,96.92
2019-03-26T01:27:54.806Z,97.08
2019-03-26T01:30:23.421Z,97.09
2019-03-26T01:32:52.051Z,97.20
2019-03-26T01:35:20.666Z,97.46
2019-03-26T01:37:49.289Z,97.66
2019-03-26T01:40:18.216Z,97.75
2019-03-26T01:42:46.835Z,97.79
2019-03-26T01:45:15.752Z,97.79
2019-03-26T01:47:44.361Z,97.83
2019-03-26T01:50:14.519Z,98.07
2019-03-26T01:52:44.650Z,98.51
2019-03-26T01:55:16.166Z,98.80
2019-03-26T01:57:44.878Z,98.99
2019-03-26T02:00:13.965Z,99.06
2019-03-26T02:02:45.794Z,99.18
2019-03-26T02:05:14.815Z,99.37
2019-03-26T02:07:43.396Z,99.41
2019-03-26T02:10:12.088Z,99.40
2019-03-26T02:12:43.310Z,99.32
2019-03-26T02:15:14.912Z,99.25
2019-03-26T02:17:43.599Z,99.27
2019-03-26T02:20:12.222Z,99.29
2019-03-26T02:22:43.781Z,99.26
2019-03-26T02:25:14.275Z,99.13
2019-03-26T02:27:42.897Z,99.01
2019-03-26T02:30:11.623Z,98.89
2019-03-26T02:32:40.254Z,98.76
2019-03-26T02:35:17.720Z,98.66
2019-03-26T02:37:39.267Z,98.55
2019-03-26T02:40:07.953Z,98.48
2019-03-26T02:42:36.639Z,98.57
2019-03-26T02:45:06.175Z,98.59
2019-03-26T02:47:34.765Z,98.77
2019-03-26T02:50:03.905Z,99.05
2019-03-26T02:52:32.523Z,99.37
2019-03-26T02:55:01.149Z,99.63
2019-03-26T02:57:29.830Z,99.87
2019-03-26T02:59:58.441Z,100.00
2019-03-26T03:02:27.063Z,100.00
2019-03-26T03:04:55.681Z,100.00
2019-03-26T03:07:24.392Z,100.00
2019-03-26T03:09:52.948Z,100.00
2019-03-26T03:12:21.619Z,100.00
2019-03-26T03:14:50.631Z,100.00
2019-03-26T03:17:19.232Z,100.00
2019-03-26T03:19:47.796Z,100.00
2019-03-26T03:22:16.486Z,100.00
2019-03-26T03:24:45.096Z,100.00
2019-03-26T03:27:13.693Z,100.00
2019-03-26T03:29:43.853Z,100.00
2019-03-26T03:32:15.562Z,100.00
2019-03-26T03:34:44.364Z,100.00
2019-03-26T03:37:14.531Z,100.00
2019-03-26T03:39:45.772Z,100.00
2019-03-26T03:42:14.449Z,100.00
2019-03-26T03:44:44.954Z,100.00
2019-03-26T03:47:15.050Z,100.00
2019-03-26T03:49:44.061Z,100.00
2019-03-26T03:52:15.548Z,100.00
2019-03-26T03:54:45.688Z,100.00
2019-03-26T03:57:17.498Z,100.00
2019-03-26T03:59:46.697Z,100.00
2019-03-26T04:02:15.393Z,100.00
2019-03-26T04:04:44.040Z,100.00
2019-03-26T04:07:15.732Z,100.00
2019-03-26T04:09:44.336Z,100.00
2019-03-26T04:12:14.600Z,100.00
2019-03-26T04:14:45.987Z,100.00
2019-03-26T04:17:14.584Z,100.00
2019-03-26T04:19:46.011Z,100.00
2019-03-26T04:22:14.700Z,100.00
2019-03-26T04:24:46.390Z,100.00
2019-03-26T04:27:15.083Z,100.00
2019-03-26T04:29:43.719Z,100.00
2019-03-26T04:32:13.889Z,100.00
2019-03-26T04:34:44.974Z,100.00
2019-03-26T04:37:13.527Z,100.00
2019-03-26T04:39:42.199Z,100.00
2019-03-26T04:42:13.896Z,100.00
2019-03-26T04:44:45.793Z,100.00
2019-03-26T04:47:14.376Z,100.00
2019-03-26T04:49:44.470Z,100.00
2019-03-26T04:52:14.618Z,100.00
2019-03-26T04:54:46.002Z,100.00
2019-03-26T04:57:14.828Z,100.00
2019-03-26T04:59:43.447Z,100.00
2019-03-26T05:02:12.162Z,100.00
2019-03-26T05:04:43.748Z,100.00
2019-03-26T05:07:13.908Z,100.00
2019-03-26T05:09:45.455Z,100.00
2019-03-26T05:12:14.178Z,100.00
2019-03-26T05:14:43.135Z,100.00
2019-03-26T05:17:14.655Z,100.00
2019-03-26T05:19:46.423Z,100.00
2019-03-26T05:22:24.077Z,100.00
2019-03-26T05:24:45.401Z,100.00
2019-03-26T05:27:14.024Z,100.00
2019-03-26T05:29:45.300Z,100.00
2019-03-26T05:32:14.318Z,100.00
2019-03-26T05:34:43.244Z,100.00
2019-03-26T05:37:14.527Z,100.00
2019-03-26T05:39:44.711Z,100.00
2019-03-26T05:42:16.059Z,100.00
2019-03-26T05:44:44.679Z,100.00
2019-03-26T05:47:16.256Z,100.00
2019-03-26T05:49:44.811Z,99.45
2019-03-26T05:52:13.596Z,98.89
2019-03-26T05:54:42.220Z,98.47
2019-03-26T05:57:13.764Z,98.25
2019-03-26T05:59:44.159Z,98.08
2019-03-26T06:02:15.285Z,97.75
2019-03-26T06:04:45.005Z,97.55
2019-03-26T06:07:13.818Z,97.38
2019-03-26T06:09:42.797Z,97.40
2019-03-26T06:12:13.195Z,97.24
2019-03-26T06:15:00.887Z,97.08
2019-03-26T06:17:30.507Z,97.17
2019-03-26T06:19:59.228Z,97.53
2019-03-26T06:22:27.833Z,97.98
2019-03-26T06:24:56.464Z,98.23
2019-03-26T06:27:25.066Z,98.54
2019-03-26T06:29:53.685Z,98.61
2019-03-26T06:32:22.500Z,98.41
2019-03-26T06:34:51.083Z,98.33
2019-03-26T06:37:19.720Z,98.01
2019-03-26T06:39:48.433Z,97.65
2019-03-26T06:42:17.039Z,97.20
2019-03-26T06:44:45.617Z,96.75
2019-03-26T06:47:14.257Z,96.09
2019-03-26T06:49:42.836Z,95.21
2019-03-26T06:52:13.427Z,94.51
2019-03-26T06:54:42.005Z,93.58
2019-03-26T06:57:35.110Z,92.26
2019-03-26T06:59:54.745Z,92.48
2019-03-26T07:02:23.472Z,90.84
2019-03-26T07:04:52.120Z,90.00
2019-03-26T07:07:30.953Z,90.15
2019-03-26T07:09:50.954Z,90.04
2019-03-26T07:12:19.849Z,89.32
2019-03-26T07:14:48.412Z,88.68
2019-03-26T07:17:16.982Z,88.13
2019-03-26T07:19:45.552Z,87.49
2019-03-26T07:22:14.186Z,87.31
2019-03-26T07:24:42.904Z,86.60
2019-03-26T07:27:11.520Z,86.68
2019-03-26T07:30:06.324Z,86.82
2019-03-26T07:32:34.874Z,86.62
2019-03-26T07:35:03.916Z,85.66
2019-03-26T07:37:44.625Z,85.06
2019-03-26T07:40:02.781Z,85.08
2019-03-26T07:42:31.321Z,83.53
2019-03-26T07:44:59.895Z,83.49
2019-03-26T07:47:28.471Z,83.46
2019-03-26T07:49:57.070Z,83.14
2019-03-26T07:52:26.025Z,82.53
2019-03-26T07:54:54.613Z,82.53
2019-03-26T07:57:23.169Z,82.33
2019-03-26T07:59:51.746Z,82.33
2019-03-26T08:02:20.569Z,81.97
2019-03-26T08:04:49.140Z,81.59
2019-03-26T08:07:18.124Z,81.06
2019-03-26T08:09:46.709Z,80.92
2019-03-26T08:12:15.252Z,80.20
2019-03-26T08:14:43.836Z,79.88
2019-03-26T08:17:12.461Z,79.50
2019-03-26T08:19:41.035Z,78.94
2019-03-26T08:22:09.588Z,77.69
2019-03-26T08:24:38.165Z,78.94
2019-03-26T08:27:06.731Z,78.94
2019-03-26T08:29:35.716Z,78.37
2019-03-26T08:32:04.273Z,78.14
2019-03-26T08:34:32.816Z,77.64
2019-03-26T08:37:01.392Z,76.99
2019-03-26T08:39:30.361Z,76.99
2019-03-26T08:41:58.934Z,76.13
2019-03-26T08:44:27.489Z,76.73
2019-03-26T08:46:56.060Z,76.29
2019-03-26T08:49:30.395Z,75.66
2019-03-26T08:51:55.253Z,75.31
2019-03-26T08:54:23.817Z,73.97
2019-03-26T08:56:52.397Z,74.56
2019-03-26T08:59:20.939Z,73.20
2019-03-26T09:01:49.583Z,70.23
2019-03-26T09:04:18.133Z,70.57
2019-03-26T09:06:46.707Z,71.52
2019-03-26T09:09:15.319Z,70.61
2019-03-26T09:11:43.904Z,70.02
2019-03-26T09:14:15.558Z,70.90
2019-03-26T09:16:44.131Z,70.94
2019-03-26T09:19:12.691Z,71.25
2019-03-26T09:21:42.997Z,70.94
2019-03-26T09:24:11.544Z,71.25
2019-03-26T09:26:41.369Z,72.49
2019-03-26T09:29:09.945Z,74.83
2019-03-26T09:31:38.918Z,75.60
2019-03-26T09:34:09.956Z,74.41
2019-03-26T09:36:38.158Z,74.24
2019-03-26T09:39:07.750Z,73.06
2019-03-26T09:41:36.322Z,71.42
2019-03-26T09:44:04.937Z,70.24
2019-03-26T09:46:33.522Z,70.83
2019-03-26T09:49:02.072Z,72.06
2019-03-26T09:51:30.638Z,71.65
2019-03-26T09:53:59.184Z,71.34
2019-03-26T09:56:30.742Z,69.37
2019-03-26T09:58:58.035Z,69.66
2019-03-26T10:01:26.629Z,69.24
2019-03-26T10:03:55.157Z,69.24
2019-03-26T10:06:24.233Z,66.93
2019-03-26T10:08:53.118Z,67.42
2019-03-26T10:11:21.681Z,66.79
2019-03-26T10:13:53.015Z,68.01
2019-03-26T10:16:21.481Z,65.51
2019-03-26T10:18:50.059Z,65.34
2019-03-26T10:21:18.614Z,63.55
2019-03-26T10:23:47.177Z,64.09
2019-03-26T10:26:15.740Z,65.22
2019-03-26T10:28:44.320Z,63.94
2019-03-26T10:31:12.867Z,63.08
2019-03-26T10:33:43.087Z,64.09
2019-03-26T10:36:12.021Z,65.41
2019-03-26T10:38:42.636Z,65.81
2019-03-26T10:41:12.925Z,67.44
2019-03-26T10:43:41.497Z,66.83
2019-03-26T10:46:10.378Z,68.07
2019-03-26T10:48:38.954Z,65.47
2019-03-26T10:51:07.903Z,66.02
2019-03-26T10:53:36.483Z,66.71
2019-03-26T10:56:05.029Z,65.41
2019-03-26T10:58:33.670Z,66.47
2019-03-26T11:01:02.220Z,65.54
2019-03-26T11:03:30.792Z,66.08
2019-03-26T11:05:59.639Z,66.29
2019-03-26T11:08:28.281Z,66.94
2019-03-26T11:10:57.239Z,66.47
2019-03-26T11:13:25.815Z,67.75
2019-03-26T11:15:54.434Z,67.86
2019-03-26T11:18:23.018Z,68.88
2019-03-26T11:21:01.840Z,68.94
2019-03-26T11:23:21.842Z,69.04
2019-03-26T11:25:50.462Z,70.58
2019-03-26T11:28:19.094Z,70.15
2019-03-26T11:30:47.641Z,70.24
2019-03-26T11:33:16.291Z,68.43
2019-03-26T11:35:44.915Z,67.06
2019-03-26T11:38:13.563Z,66.75
2019-03-26T11:40:43.628Z,66.50
2019-03-26T11:43:13.691Z,66.05
2019-03-26T11:45:44.125Z,65.48
2019-03-26T11:48:12.699Z,63.82
2019-03-26T11:50:43.048Z,63.05
2019-03-26T11:53:11.676Z,63.02
2019-03-26T11:55:40.254Z,63.19
2019-03-26T11:58:08.871Z,66.12
2019-03-26T12:00:38.792Z,68.07
2019-03-26T12:03:07.412Z,68.31
2019-03-26T12:05:36.826Z,66.38
2019-03-26T12:08:05.361Z,66.81
2019-03-26T12:10:34.004Z,67.34
2019-03-26T12:13:02.623Z,67.33
2019-03-26T12:15:31.203Z,66.68
2019-03-26T12:17:59.755Z,67.78
2019-03-26T12:20:28.320Z,67.75
2019-03-26T12:22:56.878Z,68.23
2019-03-26T12:25:25.449Z,68.00
2019-03-26T12:27:53.999Z,67.51
2019-03-26T12:30:33.773Z,67.27
2019-03-26T12:33:02.409Z,67.20
2019-03-26T12:38:18.248Z,66.83
2019-03-26T12:40:47.055Z,66.64
2019-03-26T12:43:15.813Z,67.42
2019-03-26T12:45:44.431Z,68.40
2019-03-26T12:48:14.584Z,68.35
2019-03-26T12:50:46.167Z,70.59
2019-03-26T12:53:14.726Z,71.48
2019-03-26T12:55:46.711Z,71.77
2019-03-26T12:58:15.259Z,71.71
2019-03-26T13:00:44.236Z,74.36
2019-03-26T13:03:12.926Z,77.09
2019-03-26T13:05:41.567Z,81.62
2019-03-26T13:08:10.194Z,83.83
2019-03-26T13:10:52.298Z,84.93
2019-03-26T13:13:09.051Z,86.29
2019-03-26T13:15:37.629Z,86.46
2019-03-26T13:18:06.253Z,86.18
2019-03-26T13:20:34.818Z,85.57
2019-03-26T13:23:03.370Z,86.24
2019-03-26T13:25:31.940Z,85.19
2019-03-26T13:28:00.499Z,83.97
2019-03-26T13:30:29.101Z,82.78
2019-03-26T13:32:57.648Z,83.25
2019-03-26T13:35:26.199Z,83.49
2019-03-26T13:37:54.777Z,82.85
2019-03-26T13:40:27.503Z,82.34
2019-03-26T13:42:53.628Z,80.45
2019-03-26T13:45:22.556Z,80.83
2019-03-26T13:47:51.178Z,81.97
2019-03-26T13:50:20.515Z,82.88
2019-03-26T13:52:49.120Z,83.40
2019-03-26T13:55:17.724Z,85.99
2019-03-26T13:57:46.304Z,86.20
2019-03-26T14:00:17.905Z,86.35
2019-03-26T14:02:46.613Z,86.80
2019-03-26T14:05:25.945Z,86.40
2019-03-26T14:07:54.587Z,86.37
2019-03-26T14:10:23.278Z,85.50
2019-03-26T14:12:51.908Z,85.41
2019-03-26T14:15:20.519Z,84.84
2019-03-26T14:17:49.381Z,86.12
2019-03-26T14:20:19.370Z,86.17
2019-03-26T14:22:47.943Z,85.46
2019-03-26T14:25:17.069Z,85.35
2019-03-26T14:27:45.648Z,84.76
2019-03-26T14:30:14.930Z,83.64
2019-03-26T14:32:43.503Z,82.02
2019-03-26T14:35:12.201Z,80.30
2019-03-26T14:37:51.095Z,81.53
2019-03-26T14:40:12.455Z,82.84
2019-03-26T14:42:42.023Z,83.92
2019-03-26T14:45:13.262Z,85.14
2019-03-26T14:47:44.701Z,87.88
2019-03-26T14:50:16.947Z,88.89
2019-03-26T14:52:45.522Z,90.35
2019-03-26T14:55:14.334Z,90.04
2019-03-26T14:57:42.909Z,88.98
2019-03-26T15:00:15.747Z,88.54
2019-03-26T15:02:44.314Z,89.46
2019-03-26T15:05:13.006Z,89.53
2019-03-26T15:07:41.965Z,90.25
2019-03-26T15:10:13.516Z,90.25
2019-03-26T15:12:42.150Z,90.31
2019-03-26T15:15:14.439Z,89.69
2019-03-26T15:17:44.562Z,87.80
2019-03-26T15:20:15.054Z,88.24
2019-03-26T15:22:43.646Z,88.14
2019-03-26T15:25:13.915Z,88.14
2019-03-26T15:27:45.556Z,88.34
2019-03-26T15:30:14.653Z,88.34
2019-03-26T15:32:46.108Z,86.41
2019-03-26T15:35:14.896Z,86.26
2019-03-26T15:37:43.470Z,83.47
2019-03-26T15:40:13.887Z,78.55
2019-03-26T15:42:45.426Z,77.18
2019-03-26T15:45:14.805Z,78.90
2019-03-26T15:47:43.412Z,77.81
2019-03-26T15:50:13.669Z,74.67
2019-03-26T15:52:43.929Z,75.37
2019-03-26T15:55:15.615Z,74.76
2019-03-26T15:57:44.218Z,73.87
2019-03-26T16:00:14.570Z,72.46
2019-03-26T16:02:46.082Z,72.62
2019-03-26T16:05:14.666Z,70.85
2019-03-26T16:07:46.453Z,69.21
2019-03-26T16:10:15.073Z,69.29
2019-03-26T16:12:44.082Z,69.21
2019-03-26T16:15:13.025Z,71.50
2019-03-26T16:17:41.572Z,68.86
2019-03-26T16:20:10.741Z,67.93
2019-03-26T16:22:39.351Z,68.06
2019-03-26T16:25:08.172Z,68.14
2019-03-26T16:27:36.846Z,66.52
2019-03-26T16:30:07.257Z,67.26
2019-03-26T16:32:35.948Z,66.95
2019-03-26T16:35:05.563Z,67.94
2019-03-26T16:37:34.118Z,67.41
2019-03-26T16:40:02.762Z,68.39
2019-03-26T16:42:31.313Z,68.86
2019-03-26T16:44:59.888Z,67.90
2019-03-26T16:47:28.421Z,68.71
2019-03-26T16:49:56.994Z,69.77
2019-03-26T16:52:26.799Z,69.61
2019-03-26T16:54:55.669Z,69.36
2019-03-26T16:57:24.210Z,70.07
2019-03-26T16:59:52.856Z,69.95
2019-03-26T17:02:21.410Z,70.41
2019-03-26T17:04:49.981Z,71.72
2019-03-26T17:07:18.523Z,71.74
2019-03-26T17:09:47.445Z,72.00
2019-03-26T17:12:16.315Z,71.72
2019-03-26T17:14:44.888Z,71.76
2019-03-26T17:17:13.435Z,72.15
2019-03-26T17:19:42.013Z,72.64
2019-03-26T17:22:12.878Z,72.38
2019-03-26T17:24:41.456Z,72.43
2019-03-26T17:27:11.919Z,72.45
2019-03-26T17:29:42.663Z,71.67
2019-03-26T17:32:12.946Z,72.19
2019-03-26T17:34:41.907Z,71.90
2019-03-26T17:37:13.014Z,71.75
2019-03-26T17:39:41.581Z,72.08
2019-03-26T17:42:17.090Z,72.69
2019-03-26T17:44:40.451Z,73.10
2019-03-26T17:47:09.013Z,72.78
2019-03-26T17:49:37.610Z,72.56
2019-03-26T17:52:06.145Z,74.20
2019-03-26T17:54:34.715Z,73.59
2019-03-26T17:57:03.260Z,74.36
2019-03-26T17:59:31.836Z,75.47
2019-03-26T18:02:00.394Z,76.41
2019-03-26T18:04:30.416Z,77.00
2019-03-26T18:06:58.960Z,77.34
2019-03-26T18:09:27.531Z,77.27
2019-03-26T18:11:56.079Z,76.59
2019-03-26T18:14:25.054Z,76.59
2019-03-26T18:16:53.599Z,77.14
2019-03-26T18:19:22.146Z,77.04
2019-03-26T18:21:51.950Z,77.29
2019-03-26T18:24:20.646Z,77.79
2019-03-26T18:26:49.218Z,78.03
2019-03-26T18:29:17.779Z,77.46
2019-03-26T18:31:46.573Z,77.23
2019-03-26T18:34:15.126Z,76.84
2019-03-26T18:36:44.059Z,76.95
2019-03-26T18:39:15.689Z,78.33
2019-03-26T18:41:44.270Z,78.01
2019-03-26T18:44:12.814Z,78.41
2019-03-26T18:46:43.031Z,78.11
2019-03-26T18:49:11.977Z,77.19
2019-03-26T18:51:43.038Z,78.67
2019-03-26T18:54:11.593Z,77.50
2019-03-26T18:56:41.304Z,77.50
2019-03-26T18:59:09.793Z,77.32
2019-03-26T19:01:38.743Z,77.83
2019-03-26T19:04:07.297Z,77.36
2019-03-26T19:06:35.867Z,77.36
2019-03-26T19:09:05.666Z,77.84
2019-03-26T19:11:34.379Z,77.27
2019-03-26T19:14:04.046Z,77.61
2019-03-26T19:16:32.691Z,77.85
2019-03-26T19:19:01.247Z,77.85
2019-03-26T19:21:29.823Z,78.00
2019-03-26T19:24:03.904Z,78.01
2019-03-26T19:26:28.732Z,78.67
2019-03-26T19:28:57.373Z,78.85
2019-03-26T19:31:27.835Z,79.04
2019-03-26T19:33:56.676Z,78.86
2019-03-26T19:36:25.300Z,78.86
2019-03-26T19:38:54.692Z,79.12
2019-03-26T19:41:23.644Z,78.54
2019-03-26T19:43:52.190Z,78.54
2019-03-26T19:46:20.771Z,78.51
2019-03-26T19:48:49.356Z,78.23
2019-03-26T19:51:18.014Z,78.31
2019-03-26T19:53:46.637Z,78.63
2019-03-26T19:56:15.295Z,78.63
2019-03-26T19:58:43.849Z,78.64
2019-03-26T20:01:13.163Z,78.32
2019-03-26T20:03:44.410Z,78.99
2019-03-26T20:06:14.513Z,78.48
2019-03-26T20:08:45.856Z,79.10
2019-03-26T20:11:15.414Z,78.49
2019-03-26T20:13:44.295Z,78.49
2019-03-26T20:16:15.899Z,79.31
2019-03-26T20:18:44.553Z,79.07
2019-03-26T20:21:16.283Z,79.92
2019-03-26T20:23:44.875Z,80.09
2019-03-26T20:26:13.522Z,80.52
2019-03-26T20:28:43.819Z,80.52
2019-03-26T20:31:14.291Z,80.10
2019-03-26T20:33:44.395Z,80.16
2019-03-26T20:36:14.506Z,80.37
2019-03-26T20:38:44.611Z,81.44
2019-03-26T20:41:15.964Z,79.84
2019-03-26T20:43:44.542Z,80.04
2019-03-26T20:46:15.833Z,80.70
2019-03-26T20:48:44.476Z,80.32
2019-03-26T20:51:14.922Z,81.84
2019-03-26T20:53:43.494Z,80.90
2019-03-26T20:56:12.221Z,80.87
2019-03-26T20:58:41.157Z,81.51
2019-03-26T21:01:09.719Z,81.85
2019-03-26T21:03:38.291Z,81.83
2019-03-26T21:06:07.242Z,82.52
2019-03-26T21:08:36.275Z,81.55
2019-03-26T21:11:05.147Z,81.37
2019-03-26T21:13:33.729Z,82.33
2019-03-26T21:16:02.711Z,83.47
2019-03-26T21:18:31.282Z,83.80
2019-03-26T21:20:59.839Z,83.32
2019-03-26T21:23:28.502Z,83.35
2019-03-26T21:25:57.051Z,84.05
2019-03-26T21:28:25.954Z,85.20
2019-03-26T21:30:54.505Z,84.82
2019-03-26T21:33:23.083Z,84.64
2019-03-26T21:35:51.632Z,84.64
2019-03-26T21:38:20.210Z,84.67
2019-03-26T21:40:48.761Z,84.81
2019-03-26T21:43:17.344Z,84.75
2019-03-26T21:45:45.905Z,85.27
2019-03-26T21:48:14.921Z,86.06
2019-03-26T21:50:43.471Z,86.06
2019-03-26T21:53:12.048Z,85.71
2019-03-26T21:55:42.623Z,85.72
2019-03-26T21:58:12.813Z,85.67
2019-03-26T22:00:44.487Z,85.67
2019-03-26T22:03:15.903Z,85.67
2019-03-26T22:05:44.468Z,85.81
2019-03-26T22:08:14.556Z,85.81
2019-03-26T22:10:44.667Z,86.43
2019-03-26T22:13:15.906Z,86.31
2019-03-26T22:15:44.793Z,87.18
2019-03-26T22:18:13.353Z,87.19
2019-03-26T22:20:41.992Z,87.87
2019-03-26T22:23:13.192Z,87.87
2019-03-26T22:25:44.573Z,88.35
2019-03-26T22:28:14.668Z,88.43
2019-03-26T22:30:46.563Z,88.88
2019-03-26T22:33:15.114Z,88.88
2019-03-26T22:35:43.697Z,89.32
2019-03-26T22:38:13.754Z,89.46
2019-03-26T22:40:43.841Z,89.92
2019-03-26T22:43:13.911Z,90.34
2019-03-26T22:45:42.928Z,90.87
2019-03-26T22:48:11.479Z,91.10
2019-03-26T22:50:42.059Z,91.10
2019-03-26T22:53:10.335Z,91.64
2019-03-26T22:55:39.642Z,92.01
2019-03-26T22:58:08.208Z,92.50
2019-03-26T23:00:37.503Z,92.71
2019-03-26T23:03:06.546Z,92.61
2019-03-26T23:05:35.302Z,92.43
2019-03-26T23:08:03.873Z,92.59
2019-03-26T23:10:32.525Z,92.59
2019-03-26T23:13:01.079Z,92.47
2019-03-26T23:15:29.790Z,92.73
2019-03-26T23:17:58.408Z,92.73
2019-03-26T23:20:26.992Z,92.80
2019-03-26T23:22:56.232Z,92.95
2019-03-26T23:25:24.805Z,92.95
2019-03-26T23:27:53.359Z,93.21
2019-03-26T23:30:21.981Z,93.41
2019-03-26T23:32:50.894Z,93.55
2019-03-26T23:35:19.480Z,94.50
2019-03-26T23:37:48.024Z,94.50
2019-03-26T23:40:16.859Z,94.92
2019-03-26T23:42:45.753Z,95.11
2019-03-26T23:45:14.400Z,95.11
2019-03-26T23:47:44.492Z,95.23
2019-03-26T23:50:14.654Z,95.75
2019-03-26T23:52:45.956Z,96.03
2019-03-26T23:55:14.674Z,96.24
2019-03-26T23:57:46.383Z,96.27
